Tiempo atmosférico en la estación meteorológica de Aller, Asturias (750 m.)



Fecha
DESCASC
Temp. máxima en grados centígrados (hora)
DESCASC
Temp. mínima en grados centígrados (hora)
DESCASC
Temp. media en grados centígrados
DESCASC
Racha de viento máxima en m/sg (hora)
DESCASC
Velocidad máxima media en intervalos de 10 minutos(hora)
DESCASC
Precipitaciones diarias en mm
DESCASC
Precipitaciones de 00:00 a 06:00 en mm
DESCASC
Precipitaciones de 06:00 a 12:00 en mm
DESCASC
Precipitaciones de 12:00 a 18:00 en mm
DESCASC
Precipitaciones de 18:00 a 24:00 en mm
DESCASC
19-04-2018 24.8 (16:30) 7.2 (07:20) 16 7.22 (10:30) 3.33 (10:00) 0 0 0 0 0
18-04-2018 25.4 (17:30) 7.8 (04:40) 16.6 8.06 (11:20) 2.78 (05:50) 0 0 0 0 0
17-04-2018 24 (17:30) 8.6 (02:50) 16.3 7.78 (13:20) 3.33 (06:30) 0 0 0 0 0
16-04-2018 17.2 (17:30) 4.6 (09:20) 10.9 9.72 (20:40) 3.89 (20:20) 3.2 3.2 0 0 0
15-04-2018 16.9 (14:30) 6.9 (00:00) 11.9 9.72 (12:50) 4.17 (16:00) 1.8 1.2 0.2 0 0.4
14-04-2018 15.8 (17:10) 2.8 (00:00) 9.3 8.33 (17:10) 3.61 (17:00) 0 0 0 0 0
13-04-2018 9.5 (12:30) 5.8 (00:00) 7.7 4.17 (13:20) 2.5 (13:20) 10.6 0 0 9.2 1.4
12-04-2018 13.2 (16:20) 1.4 (00:00) 7.3 7.5 (12:40) 2.78 (12:10) 1 1 0 0 0
11-04-2018 6.1 (16:50) 1.4 (00:00) 3.7 6.39 (19:00) 3.61 (19:00) 15 2 2 2 9
10-04-2018 6.9 (14:40) 2.5 (00:00) 4.7 7.78 (15:50) 3.89 (15:50) 5 0.4 2.2 1 1.4
09-04-2018 6.8 (00:00) 3.3 (00:00) 5.1 6.39 (16:20) 3.61 (13:50) 10.4 0.4 4 4.6 1.4
08-04-2018 14 (14:10) 3.3 (00:00) 8.6 7.5 (16:10) 3.33 (18:20) 3 0 0 0 3
07-04-2018 12.9 (16:00) 5.3 (00:00) 9.1 8.89 (07:30) 3.61 (07:30) 11 2.2 0 0 8.8
06-04-2018 18.5 (16:40) 7.6 (00:00) 13 11.94 (00:20) 4.72 (06:50) 7 0 0 0 7
05-04-2018 15.3 (17:50) 1.5 (00:00) 8.4 13.89 (23:59) 5 (16:20) 0.2 0.2 0 0 0
04-04-2018 14.4 (16:30) 6.2 (00:00) 10.3 9.17 (03:10) 3.61 (18:10) 0.6 0 0 0 0.6
03-04-2018 12.3 (17:50) 6.7 (00:00) 9.5 17.22 (18:50) 6.67 (19:10) 5.4 0.4 2.6 1.8 0.6
02-04-2018 14 (11:50) 10 (00:00) 12 17.22 (05:40) 4.44 (10:30) 3 0.2 1.2 1.6 0
01-04-2018 15.2 (17:00) 3.3 (00:00) 9.2 10.56 (14:40) 4.44 (11:50) 0 0 0 0 0
31-03-2018 9.3 (17:10) 0.3 (00:00) 4.8 8.33 (17:50) 3.61 (17:50) 19.6 17 2.4 0.2 0
30-03-2018 8.9 (14:50) -0.3 (00:00) 4.3 18.61 (14:10) 5.56 (15:40) 1.2 0 0 0.2 1
29-03-2018 10.4 (13:20) -0.3 (00:00) 5 10.56 (19:50) 3.06 (14:50) 1.2 0.6 0 0 0.6
28-03-2018 13.2 (14:20) 2.9 (00:00) 8 6.94 (18:30) 3.33 (18:30) 5.6 0 0 0 5.6
27-03-2018 13.1 (13:50) 2.7 (00:00) 7.9 5 (23:20) 3.06 (20:20) 0 0 0 0 0
26-03-2018 9.9 (16:20) 0.6 (00:00) 5.2 5 (01:20) 2.78 (01:10) 4.8 3.2 0.2 0.2 1.2
25-03-2018 2.4 (00:00) 0.3 (00:00) 1.4 6.11 (03:40) 2.5 (07:50) 54.6 0.6 12.2 25 16.8
24-03-2018 3.7 (14:30) 0.6 (00:00) 2.2 13.06 (17:30) 6.39 (14:20) 48 0.8 17.2 21.8 8.2
23-03-2018 12.6 (14:50) 2.2 (00:00) 7.4 11.11 (20:50) 4.44 (20:50) 12.6 4.8 4.6 0.2 3

Gráficas

Temp. máximas Temp. mínimas Temp. medias Precipitaciones Rachas de viento máximas Velocidades máximas media en intervalos de 10 minutos

Datos horarios

Fecha y hora oficial Temperatura (ºC) Velocidad del viento (km/h) Dirección del viento Racha (km/h) Dirección de racha Precipitación (mm) Presión (hPa) Tendencia (hPa) Humedad (%)
2018-04-21 23:00:00 16.2 7 Sudeste 23 Sudeste 0 -- -- 54
2018-04-21 22:00:00 16.6 7 Este 21 Sudeste 0 -- -- 51
2018-04-21 21:00:00 16.3 2 Sudeste 8 Sudeste 0 -- -- 55
2018-04-21 20:00:00 18.3 0 Calma 12 Sudeste 0 -- -- 51
2018-04-21 19:00:00 19.4 4 Este 17 Sur 0 -- -- 43
2018-04-21 18:00:00 19.7 6 Sudeste 15 Sur 0 -- -- 41
2018-04-21 17:00:00 20.4 7 Sudeste 21 Sudeste 0 -- -- 42
2018-04-21 16:00:00 19.9 5 Este 26 Sur 0 -- -- 42
2018-04-21 15:00:00 21.2 6 Sudeste 20 Sur 0 -- -- 42
2018-04-21 14:00:00 21.1 4 Nordeste 23 Sudeste 0 -- -- 44
2018-04-21 13:00:00 20.5 8 Sudeste 25 Sudeste 0 -- -- 43
2018-04-21 12:00:00 18.9 11 Sudeste 29 Sur 0 -- -- 46
2018-04-21 11:00:00 18.3 6 Este 21 Sur 0 -- -- 49
2018-04-21 10:00:00 12.4 5 Noroeste 9 Noroeste 0 -- -- 74
2018-04-21 09:00:00 12.3 4 Noroeste 18 Sur 0 -- -- 72
2018-04-21 08:00:00 10.9 5 Nordeste 15 Sur 0 -- -- 75
2018-04-21 07:00:00 12.3 3 Norte 17 Sudeste 0 -- -- 70
2018-04-21 06:00:00 13 6 Sudeste 17 Sur 0 -- -- 68
2018-04-21 05:00:00 12.3 0 Calma 13 Sudeste 0 -- -- 72
2018-04-21 04:00:00 15.8 6 Este 25 Sudeste 0 -- -- 59
2018-04-21 03:00:00 15.2 3 Sudoeste 14 Sur 0 -- -- 60
2018-04-21 02:00:00 15.8 6 Sudeste 31 Sudeste 0 -- -- 58
2018-04-21 01:00:00 11.1 0 Calma 10 Sudeste 0 -- -- 76
2018-04-21 00:00:00 11.5 3 Sudeste 12 Sur 0 -- -- 73
2018-04-20 23:00:00 12.2 4 Sudeste 9 Sudeste 0 -- -- 69
2018-04-20 22:00:00 14 5 Sudeste 11 Sur 0 -- -- 60
2018-04-20 21:00:00 16.4 7 Sudeste 10 Sudeste 0 -- -- 53
2018-04-20 20:00:00 19.8 2 Sur 23 Sur 0 -- -- 44
2018-04-20 19:00:00 22.6 6 Sur 19 Sudeste 0 -- -- 33
2018-04-20 18:00:00 23.5 6 Sudeste 18 Sur 0 -- -- 32
2018-04-20 17:00:00 23.4 5 Sur 17 Sur 0 -- -- 32
2018-04-20 16:00:00 22.7 5 Sur 19 Sudeste 0 -- -- 38
2018-04-20 15:00:00 22.5 4 Oeste 19 Sudeste 0 -- -- 39
2018-04-20 14:00:00 21.9 5 Norte 21 Sudeste 0 -- -- 44
2018-04-20 13:00:00 21.2 8 Sudeste 18 Sur 0 -- -- 44
2018-04-20 12:00:00 19.9 7 Sudeste 21 Sur 0 -- -- 52
2018-04-20 11:00:00 17.9 8 Este 20 Sudeste 0 -- -- 56
2018-04-20 10:00:00 10.9 2 Este 4 Este 0 -- -- 86
2018-04-20 09:00:00 9.5 2 Sur 11 Este 0 -- -- 88
2018-04-20 08:00:00 8.4 3 Sur 9 Sudeste 0 -- -- 91
2018-04-20 07:00:00 8.9 2 Sudeste 10 Sudeste 0 -- -- 90
2018-04-20 06:00:00 9.1 0 Calma 9 Noroeste 0 -- -- 93
2018-04-20 05:00:00 9.5 3 Noroeste 9 Nordeste 0 -- -- 92
2018-04-20 04:00:00 9.7 3 Norte 8 Nordeste 0 -- -- 92
2018-04-20 03:00:00 9.9 3 Noroeste 7 Sur 0 -- -- 88
2018-04-20 02:00:00 10.1 0 Calma 11 Sudeste 0 -- -- 85
2018-04-20 01:00:00 10 5 Sudeste 10 Sudeste 0 -- -- 85
2018-04-20 00:00:00 11.2 6 Sudeste 11 Sudeste 0 -- -- 80
2018-04-19 23:00:00 12.1 7 Sudeste 10 Sudeste 0 -- -- 77
2018-04-19 22:00:00 14.4 5 Sudeste 10 Norte 0 -- -- 71
2018-04-19 21:00:00 16.8 5 Norte 12 Noroeste 0 -- -- 68
2018-04-19 20:00:00 18.3 9 Norte 16 Norte 0 -- -- 63
2018-04-19 19:00:00 20.5 6 Noroeste 20 Noroeste 0 -- -- 53
2018-04-19 18:00:00 22.7 8 Noroeste 16 Noroeste 0 -- -- 45
2018-04-19 17:00:00 23.6 6 Sudeste 19 Sudeste 0 -- -- 38
2018-04-19 16:00:00 24.7 5 Sudoeste 16 Sudeste 0 -- -- 36
2018-04-19 15:00:00 23.7 5 Noroeste 17 Sur 0 -- -- 36
2018-04-19 14:00:00 23.1 6 Sur 18 Sudeste 0 -- -- 38
2018-04-19 13:00:00 22.3 4 Este 26 Sur 0 -- -- 40
2018-04-19 12:00:00 20.8 5 Nordeste 26 Sur 0 -- -- 41
2018-04-19 11:00:00 19 9 Sudeste 26 Sudeste 0 -- -- 45
2018-04-19 10:00:00 14.9 12 Sudeste 25 Sudeste 0 -- -- 58
2018-04-19 09:00:00 7.9 3 Norte 9 Sudeste 0 -- -- 91
2018-04-19 08:00:00 7.9 2 Este 13 Sudeste 0 -- -- 89
2018-04-19 07:00:00 7.4 3 Sudeste 10 Sudeste 0 -- -- 90
2018-04-19 06:00:00 7.5 5 Sudeste 12 Sudeste 0 -- -- 90
2018-04-19 05:00:00 7.8 2 Sudeste 10 Sudeste 0 -- -- 88
2018-04-19 04:00:00 8.5 7 Sudeste 10 Sur 0 -- -- 87
2018-04-19 03:00:00 9 4 Sudeste 12 Sudeste 0 -- -- 84
2018-04-19 02:00:00 9.5 0 Calma 9 Sudeste 0 -- -- 82
2018-04-19 01:00:00 10.7 5 Sudeste 11 Sudeste 0 -- -- 78
2018-04-19 00:00:00 11.9 0 Calma 8 Sudeste 0 -- -- 71
2018-04-18 23:00:00 13.5 7 Sudeste 12 Sudeste 0 -- -- 64
2018-04-18 22:00:00 16.3 8 Sudeste 13 Sudeste 0 -- -- 53
2018-04-18 21:00:00 17.7 7 Sudeste 12 Sudeste 0 -- -- 46
2018-04-18 20:00:00 19.5 7 Sudeste 14 Sudeste 0 -- -- 42
2018-04-18 19:00:00 24.4 3 Sudeste 16 Sudeste 0 -- -- 29
2018-04-18 18:00:00 25.2 6 Sudeste 23 Sudeste 0 -- -- 28
2018-04-18 17:00:00 25.3 6 Sudeste 28 Este 0 -- -- 31
2018-04-18 16:00:00 24.7 6 Nordeste 23 Este 0 -- -- 34
2018-04-18 15:00:00 23.9 9 Noroeste 24 Noroeste 0 -- -- 33
2018-04-18 14:00:00 24.1 6 Sudeste 19 Sudeste 0 -- -- 33
2018-04-18 13:00:00 23.2 7 Este 19 Noroeste 0 -- -- 36
2018-04-18 12:00:00 22.2 4 Sudeste 29 Este 0 -- -- 32
2018-04-18 11:00:00 20.3 6 Este 24 Norte 0 -- -- 35
2018-04-18 10:00:00 15.5 6 Este 18 Este 0 -- -- 52
2018-04-18 09:00:00 10.5 2 Nordeste 9 Sudeste 0 -- -- 70
2018-04-18 08:00:00 9.8 4 Sudeste 16 Sudeste 0 -- -- 68
2018-04-18 07:00:00 9.4 0 Calma 11 Sudeste 0 -- -- 66
2018-04-18 06:00:00 12.6 8 Sudeste 18 Sudeste 0 -- -- 51
2018-04-18 05:00:00 9.5 6 Sudeste 16 Sudeste 0 -- -- 61
2018-04-18 04:00:00 8.1 4 Sudeste 11 Sudeste 0 -- -- 77
2018-04-18 03:00:00 8.5 0 Calma 5 Sudeste 0 -- -- 77
2018-04-18 02:00:00 8.6 3 Sudeste 11 Sudeste 0 -- -- 78
2018-04-18 01:00:00 9 5 Sudeste 10 Sudeste 0 -- -- 78
2018-04-18 00:00:00 9.7 5 Sudeste 9 Sudeste 0 -- -- 78
2018-04-17 23:00:00 10.8 3 Sudeste 11 Sudeste 0 -- -- 73
2018-04-17 22:00:00 12.5 3 Sudeste 8 Sudeste 0 -- -- 63
2018-04-17 21:00:00 16.7 3 Sur 17 Sudeste 0 -- -- 47
2018-04-17 20:00:00 18.9 8 Sudeste 15 Sudeste 0 -- -- 37
2018-04-17 19:00:00 21.8 4 Sudeste 20 Sudeste 0 -- -- 31
2018-04-17 18:00:00 23.7 8 Noroeste 21 Noroeste 0 -- -- 29
2018-04-17 17:00:00 23.9 4 Sudeste 25 Noroeste 0 -- -- 22
2018-04-17 16:00:00 23.4 8 Sudeste 26 Sudeste 0 -- -- 22
2018-04-17 15:00:00 22.4 8 Sur 26 Sudeste 0 -- -- 23
2018-04-17 14:00:00 21.7 8 Sudeste 28 Sudeste 0 -- -- 24
2018-04-17 13:00:00 21 11 Sudeste 25 Sudeste 0 -- -- 25
2018-04-17 12:00:00 20.4 11 Sur 23 Sur 0 -- -- 22
2018-04-17 11:00:00 18.4 12 Sudeste 27 Este 0 -- -- 27
2018-04-17 10:00:00 14.3 9 Sudeste 18 Sur 0 -- -- 36
2018-04-17 09:00:00 13.2 8 Sudeste 21 Sudeste 0 -- -- 41
2018-04-17 08:00:00 13.7 12 Sudeste 28 Sudeste 0 -- -- 41
2018-04-17 07:00:00 11.6 6 Norte 26 Sudeste 0 -- -- 46
2018-04-17 06:00:00 12.7 6 Sudeste 23 Sudeste 0 -- -- 42
2018-04-17 05:00:00 12.1 9 Sudeste 21 Sudeste 0 -- -- 44
2018-04-17 04:00:00 9.8 4 Este 17 Este 0 -- -- 61
2018-04-17 03:00:00 8.9 3 Este 7 Sudeste 0 -- -- 67
2018-04-17 02:00:00 11 2 Norte 25 Sudeste 0 -- -- 62
2018-04-17 01:00:00 13.7 10 Sudeste 26 Sudeste 0 -- -- 47
2018-04-17 00:00:00 13.2 7 Sudeste 28 Sudeste 0 -- -- 50
2018-04-16 23:00:00 13.3 7 Sudeste 27 Sudeste 0 -- -- 50
2018-04-16 22:00:00 13.8 6 Sudeste 30 Sudeste 0 -- -- 50
2018-04-16 21:00:00 14.6 11 Sudeste 35 Sudeste 0 -- -- 48
2018-04-16 20:00:00 15.4 10 Sudeste 25 Sudeste 0 -- -- 43
2018-04-16 19:00:00 16.5 5 Sudeste 32 Sudeste 0 -- -- 40
2018-04-16 18:00:00 17.1 12 Sudeste 27 Sudeste 0 -- -- 41
2018-04-16 17:00:00 17.1 10 Sudeste 30 Sudeste 0 -- -- 42
2018-04-16 16:00:00 16 12 Sudeste 27 Sudeste 0 -- -- 40
2018-04-16 15:00:00 15.8 9 Sudeste 28 Sudeste 0 -- -- 43
2018-04-16 14:00:00 14.6 9 Sudeste 24 Sudeste 0 -- -- 45
2018-04-16 13:00:00 13.3 9 Sudeste 28 Sudeste 0 -- -- 49
2018-04-16 12:00:00 12 8 Sudeste 22 Norte 0 -- -- 56
2018-04-16 11:00:00 8.7 2 Nordeste 9 Nordeste 0 -- -- 83
2018-04-16 10:00:00 4.6 3 Nordeste 6 Nordeste 0 -- -- 97
2018-04-16 09:00:00 4.9 0 Calma 4 Sudeste 0 -- -- 95
2018-04-16 08:00:00 5.8 0 Calma 6 Sudeste 0 -- -- 97
2018-04-16 07:00:00 5.9 3 Noroeste 4 Sur 0 -- -- 98
2018-04-16 06:00:00 6 3 Noroeste 5 Noroeste 0.2 -- -- 98
2018-04-16 05:00:00 6.1 2 Noroeste 5 Oeste 0 -- -- 97
2018-04-16 04:00:00 6.1 0 Calma 7 Noroeste 0.4 -- -- 97
2018-04-16 03:00:00 6.2 0 Calma 5 Norte 0.6 -- -- 97
2018-04-16 02:00:00 6.2 4 Norte 9 Nordeste 0.4 -- -- 97
2018-04-16 01:00:00 6.3 5 Norte 19 Norte 1.6 -- -- 96
2018-04-16 00:00:00 6.9 9 Norte 17 Noroeste 0.4 -- -- 95
2018-04-15 23:00:00 7.7 4 Noroeste 8 Sudoeste 0 -- -- 93
2018-04-15 22:00:00 8.3 3 Noroeste 5 Noroeste 0 -- -- 87
2018-04-15 21:00:00 8.6 2 Noroeste 6 Norte 0 -- -- 85
2018-04-15 20:00:00 8.9 3 Norte 11 Noroeste 0 -- -- 84
2018-04-15 19:00:00 9.7 6 Norte 17 Noroeste 0 -- -- 80
2018-04-15 18:00:00 10.6 5 Noroeste 17 Noroeste 0 -- -- 79
2018-04-15 17:00:00 12.8 8 Noroeste 23 Noroeste 0 -- -- 73
2018-04-15 16:00:00 15.2 15 Noroeste 30 Noroeste 0 -- -- 64
2018-04-15 15:00:00 16.7 12 Sudeste 27 Sudeste 0 -- -- 47
2018-04-15 14:00:00 16.3 12 Sudeste 31 Sudeste 0 -- -- 46
2018-04-15 13:00:00 14.9 4 Sudeste 35 Noroeste 0 -- -- 48
2018-04-15 12:00:00 14.4 9 Norte 26 Norte 0 -- -- 51
2018-04-15 11:00:00 13.5 10 Norte 22 Norte 0 -- -- 55
2018-04-15 10:00:00 11.4 0 Calma 12 Sudeste 0 -- -- 78
2018-04-15 09:00:00 10.5 4 Sudeste 13 Sudeste 0 -- -- 76
2018-04-15 08:00:00 9.5 4 Sudeste 9 Sudeste 0 -- -- 81
2018-04-15 07:00:00 8.9 4 Sudeste 14 Sudeste 0.2 -- -- 85
2018-04-15 06:00:00 9.2 7 Sudeste 12 Sudeste 0 -- -- 83
2018-04-15 05:00:00 9.6 5 Sudeste 9 Este 0 -- -- 83
2018-04-15 04:00:00 9.4 5 Sudeste 17 Nordeste 0 -- -- 85
2018-04-15 03:00:00 8.8 5 Sudeste 11 Este 0 -- -- 90
2018-04-15 02:00:00 9.3 4 Sudeste 19 Sudeste 1.2 -- -- 89
2018-04-15 01:00:00 11.8 6 Sudeste 21 Sudeste 0 -- -- 65
2018-04-15 00:00:00 10.7 4 Este 19 Sur 0 -- -- 69
2018-04-14 23:00:00 10.9 2 Nordeste 18 Sudeste 0 -- -- 69
2018-04-14 22:00:00 12 5 Este 17 Nordeste 0 -- -- 63
2018-04-14 21:00:00 12.6 3 Sudeste 22 Sudeste 0 -- -- 59
2018-04-14 20:00:00 13.4 5 Sudeste 17 Sudeste 0 -- -- 55
2018-04-14 19:00:00 14.7 5 Sur 21 Sudeste 0 -- -- 52
2018-04-14 18:00:00 15.5 11 Sudeste 30 Sudeste 0 -- -- 50
2018-04-14 17:00:00 15.5 13 Sudeste 30 Sudeste 0 -- -- 48
2018-04-14 16:00:00 15.5 9 Este 26 Este 0 -- -- 47
2018-04-14 15:00:00 15.1 6 Este 26 Sudeste 0 -- -- 48
2018-04-14 14:00:00 14.8 9 Este 21 Este 0 -- -- 47
2018-04-14 13:00:00 14.5 4 Este 18 Nordeste 0 -- -- 49
2018-04-14 12:00:00 13.2 4 Sur 14 Sudeste 0 -- -- 55
2018-04-14 11:00:00 9.3 4 Nordeste 8 Nordeste 0 -- -- 79
2018-04-14 10:00:00 4 3 Este 10 Sudeste 0 -- -- 97
2018-04-14 09:00:00 2.9 5 Sudeste 10 Sudeste 0 -- -- 98
2018-04-14 08:00:00 2.9 6 Sudeste 8 Sudeste 0 -- -- 97
2018-04-14 07:00:00 4.1 5 Sudeste 8 Sur 0 -- -- 97
2018-04-14 06:00:00 5.1 3 Este 6 Sudeste 0 -- -- 98
2018-04-14 05:00:00 5.2 0 Calma 9 Sudeste 0 -- -- 98
2018-04-14 04:00:00 5.1 5 Sudeste 8 Sudeste 0 -- -- 97
2018-04-14 03:00:00 5.8 3 Sudeste 6 Sudeste 0 -- -- 97
2018-04-14 02:00:00 5.9 3 Este 8 Sudeste 0 -- -- 97
2018-04-14 01:00:00 6.1 0 Calma 4 Sudeste 0 -- -- 98
2018-04-14 00:00:00 6.3 2 Noroeste 4 Noroeste 0 -- -- 98
2018-04-13 23:00:00 6.4 0 Calma 3 Noroeste 0 -- -- 97
2018-04-13 22:00:00 6.5 2 Noroeste 3 Noroeste 0.4 -- -- 97
2018-04-13 21:00:00 6.7 2 Sudeste 4 Sudeste 0 -- -- 95
2018-04-13 20:00:00 6.9 0 Calma 5 Noroeste 0.4 -- -- 94
2018-04-13 19:00:00 7 3 Noroeste 6 Noroeste 0.6 -- -- 92
2018-04-13 18:00:00 6.9 2 Noroeste 5 Oeste 0.2 -- -- 90
2018-04-13 17:00:00 6.9 3 Noroeste 8 Norte 2.2 -- -- 88
2018-04-13 16:00:00 7.4 4 Noroeste 10 Noroeste 1.6 -- -- 90
2018-04-13 15:00:00 7.6 6 Noroeste 14 Noroeste 4 -- -- 95
2018-04-13 14:00:00 8.7 4 Noroeste 15 Norte 0.4 -- -- 86
2018-04-13 13:00:00 8.9 6 Norte 13 Noroeste 0.8 -- -- 88
2018-04-13 12:00:00 8.9 7 Noroeste 13 Noroeste 0 -- -- 83
2018-04-13 11:00:00 8.3 3 Noroeste 7 Noroeste 0 -- -- 86
2018-04-13 10:00:00 6.8 2 Noroeste 8 Noroeste 0 -- -- 89
2018-04-13 09:00:00 6.4 3 Sudeste 7 Sudeste 0 -- -- 89
2018-04-13 08:00:00 5.9 0 Calma 6 Sudeste 0 -- -- 92
2018-04-13 07:00:00 5.8 0 Calma 4 Sudeste 0 -- -- 92
2018-04-13 06:00:00 6 0 Calma 6 Este 0 -- -- 90
2018-04-13 05:00:00 6.2 4 Sudeste 7 Sudeste 0 -- -- 88
2018-04-13 04:00:00 6.4 5 Sudeste 7 Sudeste 0 -- -- 88
2018-04-13 03:00:00 6.7 3 Sudeste 8 Sudeste 0 -- -- 85
2018-04-13 02:00:00 6.7 3 Sudeste 6 Sudeste 0 -- -- 87
2018-04-13 01:00:00 6.8 5 Sudeste 9 Sudeste 0 -- -- 84
2018-04-13 00:00:00 6.7 0 Calma 6 Noroeste 0 -- -- 84
2018-04-12 23:00:00 7.1 2 Sudoeste 6 Sudeste 0 -- -- 83
2018-04-12 22:00:00 8.1 4 Sudeste 12 Este 0 -- -- 73
2018-04-12 21:00:00 9.3 6 Este 17 Sur 0 -- -- 66
2018-04-12 20:00:00 10.1 5 Este 26 Sudeste 0 -- -- 59
2018-04-12 19:00:00 10.5 7 Sudeste 25 Sur 0 -- -- 61
2018-04-12 18:00:00 11.4 6 Sudeste 20 Sudeste 0 -- -- 60
2018-04-12 17:00:00 12 4 Oeste 20 Sudeste 0 -- -- 54
2018-04-12 16:00:00 12.2 6 Norte 22 Sudeste 0 -- -- 57
2018-04-12 15:00:00 11.1 4 Noroeste 22 Este 0 -- -- 55
2018-04-12 14:00:00 11.7 9 Sudeste 25 Sur 0 -- -- 53
2018-04-12 13:00:00 10.9 6 Sudeste 27 Este 0 -- -- 61
2018-04-12 12:00:00 10.5 8 Sur 21 Sur 0 -- -- 58
2018-04-12 11:00:00 6.6 2 Noroeste 6 Sur 0 -- -- 82
2018-04-12 10:00:00 3.9 3 Sudeste 9 Sudeste 0 -- -- 96
2018-04-12 09:00:00 2.1 0 Calma 7 Sudeste 0 -- -- 99
2018-04-12 08:00:00 1.5 2 Sur 9 Sudeste 0 -- -- 98
2018-04-12 07:00:00 1.5 3 Sudeste 8 Sudeste 0 -- -- 98
2018-04-12 06:00:00 2 5 Sudeste 8 Sudeste 0 -- -- 98
2018-04-12 05:00:00 3 5 Sudeste 8 Sudeste 0 -- -- 97
2018-04-12 04:00:00 4.5 3 Sudeste 6 Sudeste 0 -- -- 98
2018-04-12 03:00:00 4.7 2 Este 4 Sudeste 0 -- -- 98
2018-04-12 02:00:00 5 0 Calma 5 Sudeste 0.2 -- -- 98
2018-04-12 01:00:00 5.3 0 Calma 3 Sur 0.8 -- -- 99
2018-04-12 00:00:00 5.4 2 Noroeste 10 Norte 0.8 -- -- 99
2018-04-11 23:00:00 5.5 5 Norte 13 Norte 1.6 -- -- 97
2018-04-11 22:00:00 5.6 9 Norte 21 Noroeste 2.2 -- -- 98
2018-04-11 21:00:00 5.6 12 Norte 22 Noroeste 1.8 -- -- 98
2018-04-11 20:00:00 5.7 10 Norte 23 Norte 0.8 -- -- 96
2018-04-11 19:00:00 5.7 13 Norte 23 Norte 1.8 -- -- 96
2018-04-11 18:00:00 5.9 10 Norte 20 Norte 0.6 -- -- 93
2018-04-11 17:00:00 6 11 Norte 19 Noroeste 0.6 -- -- 93
2018-04-11 16:00:00 5.9 9 Norte 18 Noroeste 0.2 -- -- 90
2018-04-11 15:00:00 5 7 Norte 13 Norte 0.6 -- -- 94
2018-04-11 14:00:00 4.8 6 Norte 12 Norte 0 -- -- 90
2018-04-11 13:00:00 4.2 4 Norte 14 Norte 0 -- -- 90
2018-04-11 12:00:00 4 9 Norte 16 Norte 0.4 -- -- 89
2018-04-11 11:00:00 3.1 8 Norte 18 Noroeste 0 -- -- 93
2018-04-11 10:00:00 2.5 12 Norte 21 Norte 0.6 -- -- 94
2018-04-11 09:00:00 2 8 Norte 21 Norte 0.6 -- -- 97
2018-04-11 08:00:00 2.1 9 Norte 17 Noroeste 0 -- -- 97
2018-04-11 07:00:00 2 7 Norte 14 Norte 0.4 -- -- 97
2018-04-11 06:00:00 1.6 6 Norte 19 Norte 0.2 -- -- 98
2018-04-11 05:00:00 1.4 6 Norte 17 Norte 0.8 -- -- 97
2018-04-11 04:00:00 1.7 9 Norte 15 Norte 0.6 -- -- 98
2018-04-11 03:00:00 1.6 7 Norte 14 Norte 0 -- -- 98
2018-04-11 02:00:00 1.8 8 Norte 18 Noroeste 0.4 -- -- 97
2018-04-11 01:00:00 2.4 7 Norte 14 Noroeste 0 -- -- 97
2018-04-11 00:00:00 2.5 2 Norte 10 Norte 0 -- -- 96
2018-04-10 23:00:00 2.5 6 Norte 11 Norte 0 -- -- 96
2018-04-10 22:00:00 2.5 3 Norte 6 Norte 0.6 -- -- 96
2018-04-10 21:00:00 2.6 0 Calma 6 Este 0 -- -- 92
2018-04-10 20:00:00 3.1 3 Norte 18 Norte 0.8 -- -- 91
2018-04-10 19:00:00 4.8 8 Noroeste 22 Oeste 0 -- -- 79
2018-04-10 18:00:00 5.6 3 Noroeste 10 Sudeste 0 -- -- 69
2018-04-10 17:00:00 4.8 3 Sur 12 Noroeste 0.2 -- -- 75
2018-04-10 16:00:00 4 10 Noroeste 28 Noroeste 0.2 -- -- 85
2018-04-10 15:00:00 6.6 12 Noroeste 19 Noroeste 0 -- -- 76
2018-04-10 14:00:00 5.9 6 Sudeste 9 Sudeste 0 -- -- 76
2018-04-10 13:00:00 3.7 3 Sudeste 15 Noroeste 0.6 -- -- 87
2018-04-10 12:00:00 4.7 9 Noroeste 22 Noroeste 0.4 -- -- 84
2018-04-10 11:00:00 5.8 5 Sudeste 9 Sudeste 0 -- -- 89
2018-04-10 10:00:00 4.2 4 Sudeste 9 Sudeste 1.2 -- -- 94
2018-04-10 09:00:00 4.6 0 Calma 14 Norte 0.4 -- -- 96
2018-04-10 08:00:00 4.7 2 Nordeste 13 Noroeste 0.2 -- -- 95
2018-04-10 07:00:00 4.9 0 Calma 6 Noroeste 0 -- -- 95
2018-04-10 06:00:00 5 3 Este 9 Este 0 -- -- 95
2018-04-10 05:00:00 5 3 Sur 8 Sudeste 0.2 -- -- 94
2018-04-10 04:00:00 5.3 5 Sudeste 16 Sudeste 0.2 -- -- 90
2018-04-10 03:00:00 5.1 4 Sudeste 13 Sudeste 0 -- -- 79
2018-04-10 02:00:00 3.5 0 Calma 11 Este 0 -- -- 94
2018-04-10 01:00:00 3.2 5 Sudeste 12 Sudeste 0 -- -- 94
2018-04-10 00:00:00 3.3 2 Este 13 Sudeste 0 -- -- 95
2018-04-09 23:00:00 4 4 Este 8 Este 0 -- -- 96
2018-04-09 22:00:00 5.1 0 Calma 3 Sudeste 0 -- -- 94
2018-04-09 21:00:00 5.8 0 Calma 6 Sur 0 -- -- 93
2018-04-09 20:00:00 5.8 5 Nordeste 12 Noroeste 0.8 -- -- 90
2018-04-09 19:00:00 6 5 Norte 12 Noroeste 0.6 -- -- 89
2018-04-09 18:00:00 5.9 5 Norte 10 Noroeste 0.6 -- -- 92
2018-04-09 17:00:00 5.3 5 Norte 23 Noroeste 0.8 -- -- 92
2018-04-09 16:00:00 5.4 9 Norte 18 Norte 0.8 -- -- 95
2018-04-09 15:00:00 5.4 6 Norte 17 Norte 1.2 -- -- 95
2018-04-09 14:00:00 5.5 11 Norte 23 Noroeste 0.6 -- -- 95
2018-04-09 13:00:00 5.6 5 Noroeste 12 Noroeste 0.6 -- -- 95
2018-04-09 12:00:00 5.5 6 Noroeste 13 Norte 0.4 -- -- 95
2018-04-09 11:00:00 6 6 Noroeste 13 Noroeste 0.4 -- -- 92
2018-04-09 10:00:00 5.9 6 Noroeste 12 Noroeste 0.6 -- -- 94
2018-04-09 09:00:00 5.4 4 Norte 9 Norte 1.2 -- -- 98
2018-04-09 08:00:00 5.6 4 Norte 10 Noroeste 0.4 -- -- 97
2018-04-09 07:00:00 6.1 0 Calma 6 Nordeste 1 -- -- 97
2018-04-09 06:00:00 6.1 3 Norte 9 Norte 0.4 -- -- 98
2018-04-09 05:00:00 6.1 5 Norte 8 Norte 0 -- -- 98
2018-04-09 04:00:00 6.3 3 Norte 6 Norte 0 -- -- 98
2018-04-09 03:00:00 6.4 5 Norte 8 Norte 0 -- -- 97
2018-04-09 02:00:00 6.6 3 Norte 5 Norte 0 -- -- 97
2018-04-09 01:00:00 6.6 3 Norte 6 Norte 0 -- -- 96
2018-04-09 00:00:00 6.8 2 Noroeste 5 Noroeste 0 -- -- 95
2018-04-08 23:00:00 6.9 4 Norte 10 Norte 0.6 -- -- 94
2018-04-08 22:00:00 7.4 5 Norte 13 Noroeste 0.2 -- -- 91
2018-04-08 21:00:00 8.4 2 Sur 5 Noroeste 1.2 -- -- 91
2018-04-08 20:00:00 9.5 4 Sudeste 17 Sur 0.4 -- -- 76
2018-04-08 19:00:00 10.2 6 Noroeste 21 Noroeste 0.6 -- -- 77
2018-04-08 18:00:00 13 5 Noroeste 24 Noroeste 0 -- -- 62
2018-04-08 17:00:00 12.2 4 Noroeste 27 Noroeste 0 -- -- 58
2018-04-08 16:00:00 13.2 8 Noroeste 19 Noroeste 0 -- -- 56
2018-04-08 15:00:00 13.4 6 Noroeste 22 Sudeste 0 -- -- 48
2018-04-08 14:00:00 13.5 6 Sudeste 26 Sudeste 0 -- -- 50
2018-04-08 13:00:00 12.8 8 Sudeste 19 Este 0 -- -- 51
2018-04-08 12:00:00 11.7 3 Sudeste 13 Sudeste 0 -- -- 54
2018-04-08 11:00:00 7.9 4 Este 6 Nordeste 0 -- -- 85
2018-04-08 10:00:00 4.2 2 Este 10 Este 0 -- -- 94
2018-04-08 09:00:00 4.2 0 Calma 6 Sudeste 0 -- -- 94
2018-04-08 08:00:00 5.2 2 Sudeste 6 Este 0 -- -- 97
2018-04-08 07:00:00 4.8 0 Calma 3 Sudeste 0 -- -- 98
2018-04-08 06:00:00 4.7 0 Calma 3 Norte 0 -- -- 97
2018-04-08 05:00:00 4.7 0 Calma 9 Sur 0 -- -- 97
2018-04-08 04:00:00 4 0 Calma 3 Sudeste 0 -- -- 98
2018-04-08 03:00:00 3.4 2 Sudeste 6 Sudeste 0 -- -- 97
2018-04-08 02:00:00 3.3 3 Sudeste 8 Sudeste 0 -- -- 96
2018-04-08 01:00:00 4.2 0 Calma 9 Este 0 -- -- 93
2018-04-08 00:00:00 5.3 5 Este 8 Nordeste 0 -- -- 91
2018-04-07 23:00:00 5.7 3 Sudeste 5 Este 1.4 -- -- 92
2018-04-07 22:00:00 6.2 3 Sudeste 13 Sudeste 3.4 -- -- 92
2018-04-07 21:00:00 7.2 6 Sudeste 13 Sudeste 3.2 -- -- 86
2018-04-07 20:00:00 8.7 2 Norte 8 Sur 0.2 -- -- 87
2018-04-07 19:00:00 9.1 4 Sudeste 22 Noroeste 0.6 -- -- 78
2018-04-07 18:00:00 11.6 10 Sudeste 30 Sudeste 0 -- -- 57
2018-04-07 17:00:00 12.6 7 Este 18 Sudeste 0 -- -- 49
2018-04-07 16:00:00 12.9 8 Este 17 Este 0 -- -- 49
2018-04-07 15:00:00 11.9 6 Este 14 Nordeste 0 -- -- 48
2018-04-07 14:00:00 10.8 6 Norte 22 Este 0 -- -- 53
2018-04-07 13:00:00 10.8 8 Este 21 Sur 0 -- -- 53
2018-04-07 12:00:00 10 6 Este 15 Este 0 -- -- 56
2018-04-07 11:00:00 8.8 4 Noroeste 10 Noroeste 0 -- -- 59
2018-04-07 10:00:00 8 6 Noroeste 18 Sudeste 0 -- -- 70
2018-04-07 09:00:00 7.7 9 Sudeste 26 Sur 0 -- -- 59
2018-04-07 08:00:00 7.7 10 Sudeste 32 Sudeste 0 -- -- 58
2018-04-07 07:00:00 8 8 Sudeste 21 Sur 0 -- -- 60
2018-04-07 06:00:00 8 12 Sudeste 25 Este 0 -- -- 65
2018-04-07 05:00:00 6.6 3 Norte 9 Noroeste 0 -- -- 94
2018-04-07 04:00:00 7.1 3 Norte 14 Sur 0 -- -- 90
2018-04-07 03:00:00 7.2 2 Sudeste 8 Noroeste 0 -- -- 95
2018-04-07 02:00:00 7.4 5 Noroeste 9 Oeste 0.6 -- -- 97
2018-04-07 01:00:00 7.4 2 Norte 9 Noroeste 1.6 -- -- 97
2018-04-07 00:00:00 7.7 0 Calma 10 Noroeste 3.4 -- -- 96
2018-04-06 23:00:00 7.9 4 Noroeste 14 Norte 3.4 -- -- 95
2018-04-06 22:00:00 8.3 6 Norte 13 Norte 0.2 -- -- 91
2018-04-06 21:00:00 8.8 9 Norte 19 Norte 0 -- -- 86
2018-04-06 20:00:00 10 10 Norte 24 Norte 0 -- -- 79
2018-04-06 19:00:00 11.7 16 Norte 32 Noroeste 0 -- -- 70
2018-04-06 18:00:00 17.3 4 Nordeste 26 Sudeste 0 -- -- 41
2018-04-06 17:00:00 18.1 7 Sudeste 26 Este 0 -- -- 40
2018-04-06 16:00:00 17.9 12 Sudeste 35 Sur 0 -- -- 39
2018-04-06 15:00:00 17.3 6 Sudeste 38 Nordeste 0 -- -- 44
2018-04-06 14:00:00 17 10 Este 35 Sudeste 0 -- -- 40
2018-04-06 13:00:00 16.6 10 Sudeste 28 Sur 0 -- -- 40
2018-04-06 12:00:00 15.6 6 Este 34 Sur 0 -- -- 45
2018-04-06 11:00:00 13.6 10 Este 28 Este 0 -- -- 50
2018-04-06 10:00:00 13.1 8 Este 32 Sudeste 0 -- -- 51
2018-04-06 09:00:00 13.1 9 Este 41 Norte 0 -- -- 53
2018-04-06 08:00:00 12.9 9 Este 35 Norte 0 -- -- 53
2018-04-06 07:00:00 13.2 7 Nordeste 42 Nordeste 0 -- -- 53
2018-04-06 06:00:00 13.1 10 Este 42 Nordeste 0 -- -- 53
2018-04-06 05:00:00 12.7 5 Este 38 Sur 0 -- -- 56
2018-04-06 04:00:00 12.8 11 Sudeste 36 Este 0 -- -- 51
2018-04-06 03:00:00 12.6 6 Nordeste 24 Sudeste 0 -- -- 48
2018-04-06 02:00:00 12.8 8 Este 23 Sudeste 0 -- -- 45
2018-04-06 01:00:00 13.5 12 Este 43 Sudeste 0 -- -- 44
2018-04-06 00:00:00 13.5 12 Sudeste 50 Sur 0 -- -- 41
2018-04-05 23:00:00 12.8 4 Sudeste 40 Sudeste 0 -- -- 47
2018-04-05 22:00:00 12.4 6 Sudeste 25 Este 0 -- -- 48
2018-04-05 21:00:00 13.1 11 Sudeste 35 Nordeste 0 -- -- 46
2018-04-05 20:00:00 13.6 11 Sudeste 34 Sur 0 -- -- 46
2018-04-05 19:00:00 14.3 8 Este 36 Sur 0 -- -- 41
2018-04-05 18:00:00 15 11 Sudeste 37 Este 0 -- -- 39
2018-04-05 17:00:00 14.4 11 Sudeste 37 Sudeste 0 -- -- 44
2018-04-05 16:00:00 14.5 13 Este 30 Sur 0 -- -- 41
2018-04-05 15:00:00 14 8 Este 33 Sudeste 0 -- -- 43
2018-04-05 14:00:00 14.2 13 Sudeste 42 Sudeste 0 -- -- 40
2018-04-05 13:00:00 13.5 14 Sudeste 48 Sudeste 0 -- -- 43
2018-04-05 12:00:00 12.4 9 Sudeste 27 Sudeste 0 -- -- 47
2018-04-05 11:00:00 8.3 2 Este 10 Sur 0 -- -- 67
2018-04-05 10:00:00 3.6 3 Norte 9 Sudeste 0 -- -- 84
2018-04-05 09:00:00 2.1 2 Sudoeste 8 Sudeste 0 -- -- 94
2018-04-05 08:00:00 1.5 2 Sudeste 8 Sudeste 0 -- -- 95
2018-04-05 07:00:00 1.6 3 Sudeste 9 Sudeste 0 -- -- 96
2018-04-05 06:00:00 1.9 2 Sur 8 Este 0 -- -- 96
2018-04-05 05:00:00 2.2 4 Sur 11 Sudeste 0.2 -- -- 97
2018-04-05 04:00:00 2.8 0 Calma 9 Sudeste 0 -- -- 94
2018-04-05 03:00:00 3.4 4 Sudeste 10 Este 0 -- -- 95
2018-04-05 02:00:00 3.8 0 Calma 5 Sur 0 -- -- 95
2018-04-05 01:00:00 5.1 2 Sudeste 6 Sudeste 0 -- -- 93
2018-04-05 00:00:00 6.4 0 Calma 3 Sudeste 0 -- -- 93
2018-04-04 23:00:00 7.7 2 Noroeste 14 Norte 0 -- -- 93
2018-04-04 22:00:00 8.3 6 Norte 13 Norte 0.2 -- -- 92
2018-04-04 21:00:00 9.1 3 Norte 10 Noroeste 0.2 -- -- 86
2018-04-04 20:00:00 9.7 5 Norte 18 Norte 0.2 -- -- 83
2018-04-04 19:00:00 11.4 11 Norte 22 Noroeste 0 -- -- 69
2018-04-04 18:00:00 13 7 Norte 24 Noroeste 0 -- -- 58
2018-04-04 17:00:00 13.7 8 Noroeste 28 Noroeste 0 -- -- 56
2018-04-04 16:00:00 14.3 8 Sudeste 22 Sudeste 0 -- -- 52
2018-04-04 15:00:00 13.7 7 Sudeste 21 Este 0 -- -- 50
2018-04-04 14:00:00 13.2 8 Sudeste 31 Sur 0 -- -- 51
2018-04-04 13:00:00 12.6 8 Este 26 Noroeste 0 -- -- 53
2018-04-04 12:00:00 12.5 8 Noroeste 28 Noroeste 0 -- -- 51
2018-04-04 11:00:00 11 6 Nordeste 26 Noroeste 0 -- -- 56
2018-04-04 10:00:00 9.8 5 Nordeste 22 Sudeste 0 -- -- 60
2018-04-04 09:00:00 8.4 8 Sudeste 23 Sur 0 -- -- 63
2018-04-04 08:00:00 8 10 Sudeste 27 Sudeste 0 -- -- 63
2018-04-04 07:00:00 7.5 5 Sur 21 Sur 0 -- -- 68
2018-04-04 06:00:00 7.8 7 Este 24 Sudeste 0 -- -- 67
2018-04-04 05:00:00 7.9 5 Sudeste 17 Sudoeste 0 -- -- 64
2018-04-04 04:00:00 7.6 4 Nordeste 33 Sudeste 0 -- -- 62
2018-04-04 03:00:00 7.2 6 Sudeste 28 Nordeste 0 -- -- 63
2018-04-04 02:00:00 7.1 6 Nordeste 23 Este 0 -- -- 71
2018-04-04 01:00:00 7.4 7 Norte 27 Este 0 -- -- 67
2018-04-04 00:00:00 8.5 16 Este 44 Este 0 -- -- 59
2018-04-03 23:00:00 6.8 5 Sudeste 18 Sudeste 0.4 -- -- 82
2018-04-03 22:00:00 7.9 3 Sur 23 Sudeste 0.2 -- -- 84
2018-04-03 21:00:00 10.2 12 Este 59 Este 0 -- -- 57
2018-04-03 20:00:00 11 22 Este 53 Este 0 -- -- 51
2018-04-03 19:00:00 11.4 19 Este 62 Este 0 -- -- 51
2018-04-03 18:00:00 12.3 19 Este 49 Sudeste 0.2 -- -- 53
2018-04-03 17:00:00 10.7 14 Este 40 Sudeste 0.8 -- -- 60
2018-04-03 16:00:00 11.2 19 Este 45 Este 0.2 -- -- 59
2018-04-03 15:00:00 11.2 3 Noroeste 27 Sudeste 0.4 -- -- 66
2018-04-03 14:00:00 11 4 Noroeste 22 Sudeste 0.2 -- -- 65
2018-04-03 13:00:00 11.5 5 Sudeste 34 Este 0 -- -- 56
2018-04-03 12:00:00 10.9 8 Sudeste 43 Nordeste 0 -- -- 53
2018-04-03 11:00:00 10.5 13 Este 45 Sudeste 0 -- -- 55
2018-04-03 10:00:00 8.1 12 Este 31 Este 0.4 -- -- 59
2018-04-03 09:00:00 6.8 4 Sudeste 13 Sudeste 1.2 -- -- 93
2018-04-03 08:00:00 8.4 8 Nordeste 32 Este 0.6 -- -- 78
2018-04-03 07:00:00 8.1 3 Sudeste 24 Este 0.4 -- -- 87
2018-04-03 06:00:00 9 4 Este 17 Sur 0 -- -- 78
2018-04-03 05:00:00 8.9 4 Sudeste 25 Este 0 -- -- 80
2018-04-03 04:00:00 8.9 4 Sudeste 21 Noroeste 0 -- -- 74
2018-04-03 03:00:00 7.8 3 Este 13 Este 0.2 -- -- 90
2018-04-03 02:00:00 8.8 7 Sudeste 14 Este 0.2 -- -- 85
2018-04-03 01:00:00 11.3 6 Sudeste 55 Nordeste 0 -- -- 64
2018-04-03 00:00:00 11.6 7 Noroeste 22 Noroeste 0 -- -- 61
2018-04-02 23:00:00 11.8 6 Este 25 Este 0 -- -- 58
2018-04-02 22:00:00 10.2 3 Sudeste 16 Sur 0 -- -- 67
2018-04-02 21:00:00 12.6 8 Nordeste 28 Este 0 -- -- 53
2018-04-02 20:00:00 12.5 4 Este 17 Sur 0 -- -- 60
2018-04-02 19:00:00 13.5 10 Este 22 Este 0 -- -- 55
2018-04-02 18:00:00 13.3 9 Este 22 Este 0 -- -- 57
2018-04-02 17:00:00 12.9 12 Sudeste 31 Sudeste 0 -- -- 59
2018-04-02 16:00:00 12.8 16 Este 36 Sur 0 -- -- 60
2018-04-02 15:00:00 13.3 15 Este 40 Sudeste 0.4 -- -- 61
2018-04-02 14:00:00 11.7 6 Sudeste 22 Este 1.2 -- -- 73
2018-04-02 13:00:00 13.1 8 Este 38 Este 0 -- -- 60
2018-04-02 12:00:00 14 10 Este 40 Este 0 -- -- 53
2018-04-02 11:00:00 12.7 9 Este 39 Sudeste 0 -- -- 60
2018-04-02 10:00:00 11.8 9 Este 41 Sudeste 0.4 -- -- 59
2018-04-02 09:00:00 10.6 12 Este 31 Este 0.8 -- -- 70
2018-04-02 08:00:00 12.4 10 Este 37 Este 0 -- -- 59
2018-04-02 07:00:00 12.9 10 Nordeste 42 Nordeste 0 -- -- 53
2018-04-02 06:00:00 12.9 16 Este 62 Este 0 -- -- 50
2018-04-02 05:00:00 11.9 8 Este 42 Sudeste 0.2 -- -- 61
2018-04-02 04:00:00 11.4 8 Este 21 Este 0 -- -- 61
2018-04-02 03:00:00 11.4 6 Este 45 Este 0 -- -- 62
2018-04-02 02:00:00 11.2 7 Este 26 Sur 0 -- -- 60
2018-04-02 01:00:00 10.2 3 Noroeste 27 Sudeste 0 -- -- 69
2018-04-02 00:00:00 11.3 4 Este 17 Norte 0 -- -- 66
2018-04-01 23:00:00 10.3 5 Sudeste 12 Este 0 -- -- 71
2018-04-01 22:00:00 12.2 2 Norte 24 Este 0 -- -- 64
2018-04-01 21:00:00 13.3 9 Este 33 Sudeste 0 -- -- 57
2018-04-01 20:00:00 13.6 7 Sudeste 31 Este 0 -- -- 56
2018-04-01 19:00:00 13.9 6 Norte 29 Este 0 -- -- 54
2018-04-01 18:00:00 14.7 6 Nordeste 30 Sur 0 -- -- 49
2018-04-01 17:00:00 15.2 9 Sudeste 37 Sudeste 0 -- -- 48
2018-04-01 16:00:00 13.8 13 Sudeste 33 Sudeste 0 -- -- 51
2018-04-01 15:00:00 13 8 Sudeste 38 Sudeste 0 -- -- 54
2018-04-01 14:00:00 12.3 8 Sudeste 28 Norte 0 -- -- 58
2018-04-01 13:00:00 12.1 11 Sudeste 28 Sudeste 0 -- -- 58
2018-04-01 12:00:00 11.9 14 Sudeste 35 Sudeste 0 -- -- 59
2018-04-01 11:00:00 11.4 8 Este 22 Sur 0 -- -- 61
2018-04-01 10:00:00 9.4 5 Sur 23 Sur 0 -- -- 66
2018-04-01 09:00:00 8.1 8 Sudeste 29 Sudeste 0 -- -- 67
2018-04-01 08:00:00 7.6 12 Sudeste 28 Sudeste 0 -- -- 69
2018-04-01 07:00:00 7.7 10 Sudeste 21 Sur 0 -- -- 68
2018-04-01 06:00:00 6.3 4 Noroeste 20 Sur 0 -- -- 78
2018-04-01 05:00:00 4.8 6 Este 12 Este 0 -- -- 82
2018-04-01 04:00:00 3.7 2 Nordeste 8 Sudeste 0 -- -- 89
2018-04-01 03:00:00 3.6 0 Calma 8 Sudeste 0 -- -- 89
2018-04-01 02:00:00 3.5 4 Sudeste 8 Sur 0 -- -- 87
2018-04-01 01:00:00 3.3 3 Sudeste 6 Sur 0 -- -- 88
2018-04-01 00:00:00 3.3 4 Sudeste 9 Sudeste 0 -- -- 86
2018-03-31 23:00:00 3.7 3 Sudeste 9 Sudeste 0 -- -- 83
2018-03-31 22:00:00 4.2 4 Sudeste 10 Sudeste 0 -- -- 83
2018-03-31 21:00:00 5.2 5 Sudeste 8 Sudeste 0 -- -- 81
2018-03-31 20:00:00 6.7 4 Sudeste 8 Norte 0 -- -- 76
2018-03-31 19:00:00 8.2 0 Calma 12 Oeste 0 -- -- 66
2018-03-31 18:00:00 8.3 10 Noroeste 30 Noroeste 0 -- -- 67
2018-03-31 17:00:00 9.2 10 Noroeste 25 Noroeste 0 -- -- 57
2018-03-31 16:00:00 8.7 10 Noroeste 23 Norte 0.2 -- -- 58
2018-03-31 15:00:00 7.9 11 Noroeste 24 Noroeste 0 -- -- 63
2018-03-31 14:00:00 6.9 3 Norte 8 Noroeste 0 -- -- 68
2018-03-31 13:00:00 6.3 0 Calma 6 Sudeste 0 -- -- 71
2018-03-31 12:00:00 4.2 2 Este 6 Sur 0 -- -- 79
2018-03-31 11:00:00 2.9 3 Sudeste 6 Sudeste 0 -- -- 88
2018-03-31 10:00:00 1.6 0 Calma 8 Norte 0 -- -- 97
2018-03-31 09:00:00 0.9 5 Norte 15 Noroeste 1 -- -- 97
2018-03-31 08:00:00 1.4 6 Norte 26 Norte 0 -- -- 94
2018-03-31 07:00:00 1.1 6 Norte 21 Norte 1.4 -- -- 98
2018-03-31 06:00:00 1 8 Norte 21 Norte 2.6 -- -- 96
2018-03-31 05:00:00 0.8 8 Norte 18 Noroeste 1.6 -- -- 98
2018-03-31 04:00:00 0.6 5 Norte 10 Norte 2.4 -- -- 99
2018-03-31 03:00:00 0.3 0 Calma 6 Norte 3.6 -- -- 98
2018-03-31 02:00:00 0.4 3 Norte 5 Norte 4.6 -- -- 97
2018-03-31 01:00:00 1 2 Noroeste 16 Norte 2.2 -- -- 94
2018-03-31 00:00:00 2.8 7 Norte 15 Norte 0 -- -- 83
2018-03-30 23:00:00 2.6 5 Norte 14 Este 0 -- -- 74
2018-03-30 22:00:00 1.8 2 Sur 10 Este 0 -- -- 92
2018-03-30 21:00:00 2.9 4 Este 39 Noroeste 1 -- -- 86
2018-03-30 20:00:00 5.4 5 Este 22 Sudeste 0 -- -- 69
2018-03-30 19:00:00 7 7 Este 40 Este 0 -- -- 55
2018-03-30 18:00:00 6.1 4 Sudeste 30 Este 0 -- -- 67
2018-03-30 17:00:00 6 13 Sudeste 38 Este 0 -- -- 68
2018-03-30 16:00:00 7.2 7 Nordeste 39 Nordeste 0.2 -- -- 58
2018-03-30 15:00:00 7.8 14 Nordeste 67 Sudeste 0 -- -- 57
2018-03-30 14:00:00 6.9 15 Este 48 Sudeste 0 -- -- 49
2018-03-30 13:00:00 6.1 8 Este 35 Este 0 -- -- 49
2018-03-30 12:00:00 5.8 14 Norte 44 Noroeste 0 -- -- 48
2018-03-30 11:00:00 6 7 Este 26 Este 0 -- -- 41
2018-03-30 10:00:00 1 6 Este 14 Nordeste 0 -- -- 63
2018-03-30 09:00:00 -0.3 2 Nordeste 9 Sur 0 -- -- 85
2018-03-30 08:00:00 0.3 4 Sudeste 9 Sudeste 0 -- -- 83
2018-03-30 07:00:00 1 3 Este 10 Nordeste 0 -- -- 81
2018-03-30 06:00:00 2.5 4 Nordeste 25 Norte 0 -- -- 74
2018-03-30 05:00:00 3.5 7 Norte 19 Norte 0 -- -- 70
2018-03-30 04:00:00 4.2 7 Norte 19 Noroeste 0 -- -- 72
2018-03-30 03:00:00 3.6 4 Sudeste 22 Este 0 -- -- 77
2018-03-30 02:00:00 4.9 6 Sudeste 14 Sudeste 0 -- -- 71
2018-03-30 01:00:00 4.8 5 Nordeste 19 Norte 0 -- -- 74
2018-03-30 00:00:00 4.8 4 Sudeste 10 Este 0.4 -- -- 87
2018-03-29 23:00:00 6.6 3 Sur 31 Sudeste 0 -- -- 74
2018-03-29 22:00:00 7.1 4 Este 31 Este 0 -- -- 62
2018-03-29 21:00:00 6 3 Sudeste 24 Sudeste 0 -- -- 72
2018-03-29 20:00:00 7.6 9 Este 38 Sudeste 0 -- -- 59
2018-03-29 19:00:00 7.3 5 Sudeste 20 Sudeste 0.2 -- -- 81
2018-03-29 18:00:00 10 10 Sudeste 33 Sudeste 0 -- -- 53
2018-03-29 17:00:00 9.6 5 Este 28 Sur 0 -- -- 51
2018-03-29 16:00:00 8.2 5 Sudeste 20 Sudeste 0 -- -- 62
2018-03-29 15:00:00 8.8 7 Este 26 Este 0 -- -- 53
2018-03-29 14:00:00 9.8 8 Sudeste 24 Noroeste 0 -- -- 47
2018-03-29 13:00:00 10.2 10 Noroeste 23 Noroeste 0 -- -- 50
2018-03-29 12:00:00 9.1 3 Este 18 Sudeste 0 -- -- 55
2018-03-29 11:00:00 4.8 7 Sudeste 15 Sudeste 0 -- -- 68
2018-03-29 10:00:00 0.4 4 Norte 10 Nordeste 0 -- -- 96
2018-03-29 09:00:00 -0.3 2 Sur 9 Sudeste 0 -- -- 98
2018-03-29 08:00:00 0 0 Calma 7 Sur 0 -- -- 97
2018-03-29 07:00:00 0.9 5 Sudeste 10 Sudeste 0 -- -- 99
2018-03-29 06:00:00 0.9 0 Calma 4 Este 0 -- -- 97
2018-03-29 05:00:00 2.3 0 Calma 6 Este 0 -- -- 96
2018-03-29 04:00:00 2.9 4 Sudeste 7 Sudeste 0.2 -- -- 98
2018-03-29 03:00:00 3.1 0 Calma 7 Sudeste 0 -- -- 97
2018-03-29 02:00:00 3.5 3 Sudeste 5 Sudeste 0 -- -- 97
2018-03-29 01:00:00 3.8 0 Calma 5 Norte 0.4 -- -- 97
2018-03-29 00:00:00 4.3 5 Norte 10 Norte 0.8 -- -- 98
2018-03-28 23:00:00 4.1 6 Noroeste 10 Norte 0.8 -- -- 97
2018-03-28 22:00:00 4.3 4 Sudeste 6 Sudeste 0 -- -- 96
2018-03-28 21:00:00 4.8 4 Sudeste 8 Sudeste 1.2 -- -- 95
2018-03-28 20:00:00 6.1 2 Norte 19 Noroeste 2.2 -- -- 92
2018-03-28 19:00:00 7.5 10 Norte 25 Noroeste 0.6 -- -- 89
2018-03-28 18:00:00 10.1 3 Sudeste 8 Sur 0 -- -- 77
2018-03-28 17:00:00 10.2 6 Sudeste 11 Sudeste 0 -- -- 75
2018-03-28 16:00:00 12.6 3 Noroeste 10 Noroeste 0 -- -- 64
2018-03-28 15:00:00 12.1 9 Noroeste 17 Noroeste 0 -- -- 63
2018-03-28 14:00:00 12.7 3 Norte 9 Sur 0 -- -- 55
2018-03-28 13:00:00 12.1 6 Sudeste 9 Sur 0 -- -- 50
2018-03-28 12:00:00 10.8 5 Sudeste 10 Sudeste -- -- -- 52
2018-03-28 11:00:00 7.1 2 Sudeste 9 Sudeste -- -- -- 68
2018-03-28 10:00:00 4.3 7 Sudeste 12 Sudeste -- -- -- 73
2018-03-28 09:00:00 3.3 7 Sudeste 13 Sudeste 0 -- -- 77
2018-03-28 08:00:00 3.7 3 Noroeste 13 Este 0 -- -- 76
2018-03-28 07:00:00 5.2 8 Sudeste 14 Sudeste 0 -- -- 66
2018-03-28 06:00:00 4.8 8 Sudeste 14 Sudeste 0 -- -- 68
2018-03-28 05:00:00 4.2 10 Sudeste 15 Sudeste 0 -- -- 72
2018-03-28 04:00:00 3.5 4 Sudeste 13 Sudeste 0 -- -- 78
2018-03-28 03:00:00 4.1 7 Sudeste 13 Sudeste 0 -- -- 75
2018-03-28 02:00:00 4.3 4 Sudeste 13 Sudeste 0 -- -- 76
2018-03-28 01:00:00 5.6 8 Sudeste 21 Sudeste 0 -- -- 70
2018-03-28 00:00:00 6 10 Sudeste 18 Sudeste 0 -- -- 70
2018-03-27 23:00:00 5.3 11 Sudeste 15 Sur 0 -- -- 76
2018-03-27 22:00:00 6.3 8 Sudeste 13 Sudeste 0 -- -- 78
2018-03-27 21:00:00 7.3 8 Sudeste 17 Sudeste 0 -- -- 77
2018-03-27 20:00:00 7.9 8 Sudeste 17 Sudeste 0 -- -- 78
2018-03-27 19:00:00 9.2 7 Sudeste 16 Sur 0 -- -- 75
2018-03-27 18:00:00 10.9 9 Sudeste 14 Sudeste 0 -- -- 70
2018-03-27 17:00:00 12.4 8 Sudeste 12 Sudeste 0 -- -- 66
2018-03-27 16:00:00 12.4 5 Sudeste 9 Sudeste 0 -- -- 67
2018-03-27 15:00:00 11.9 6 Sudeste 17 Sur 0 -- -- 69
2018-03-27 14:00:00 12.8 5 Sudeste 11 Sudeste 0 -- -- 67
2018-03-27 13:00:00 9.7 6 Sudeste 13 Sudeste 0 -- -- 76
2018-03-27 12:00:00 6.7 8 Sudeste 14 Sudeste 0 -- -- 84
2018-03-27 11:00:00 5.9 6 Sudeste 13 Sudeste 0 -- -- 86
2018-03-27 10:00:00 4.5 3 Sudeste 10 Sudeste 0 -- -- 92
2018-03-27 09:00:00 3.9 6 Sudeste 10 Sudeste 0 -- -- 94
2018-03-27 08:00:00 3.4 5 Sudeste 10 Sudeste 0 -- -- 97
2018-03-27 07:00:00 2.8 7 Sudeste 10 Sudeste 0 -- -- 99
2018-03-27 06:00:00 2.9 4 Sudeste 8 Sudeste 0 -- -- 98
2018-03-27 05:00:00 3 6 Sudeste 10 Sudeste 0 -- -- 98
2018-03-27 04:00:00 3.4 6 Sudeste 12 Sudeste 0 -- -- 97
2018-03-27 03:00:00 3.7 5 Sudeste 10 Sudeste 0 -- -- 98
2018-03-27 02:00:00 3.8 7 Sudeste 11 Sudeste 0 -- -- 99
2018-03-27 01:00:00 3.9 5 Sudeste 13 Sudeste 0 -- -- 99
2018-03-27 00:00:00 3.4 3 Sudeste 11 Sudeste 0 -- -- 99
2018-03-26 23:00:00 3.5 2 Sudeste 10 Este 0 -- -- 98
2018-03-26 22:00:00 3.8 4 Sudeste 14 Sudeste 0.8 -- -- 98
2018-03-26 21:00:00 3.8 5 Sudeste 12 Sudeste 0.2 -- -- 95
2018-03-26 20:00:00 4.3 6 Sudeste 10 Sudeste 0.2 -- -- 93
2018-03-26 19:00:00 5.8 3 Sudeste 8 Sudeste 0 -- -- 81
2018-03-26 18:00:00 8.2 3 Sudeste 6 Sudeste 0 -- -- 68
2018-03-26 17:00:00 9.3 3 Sudeste 8 Sudeste 0 -- -- 63
2018-03-26 16:00:00 9 4 Sudeste 8 Sudeste 0 -- -- 61
2018-03-26 15:00:00 9 3 Sudeste 6 Sudeste 0 -- -- 63
2018-03-26 14:00:00 7 4 Sudeste 6 Sudeste 0.2 -- -- 67
2018-03-26 13:00:00 5.4 4 Sudeste 6 Sudeste 0 -- -- 76
2018-03-26 12:00:00 4.7 3 Sudeste 6 Sudeste 0 -- -- 80
2018-03-26 11:00:00 3.6 3 Este 7 Sudeste 0 -- -- 88
2018-03-26 10:00:00 1.8 4 Sudeste 8 Sudeste 0 -- -- 98
2018-03-26 09:00:00 0.9 3 Sudeste 6 Sudeste 0 -- -- 100
2018-03-26 08:00:00 0.8 0 Calma 6 Este 0 -- -- 99
2018-03-26 07:00:00 1 2 Sudeste 7 Norte 0.2 -- -- 99
2018-03-26 06:00:00 1.3 4 Norte 12 Norte 0.8 -- -- 99
2018-03-26 05:00:00 1.3 0 Calma 11 Norte 0 -- -- 99
2018-03-26 04:00:00 1.6 5 Noroeste 10 Noroeste 0.2 -- -- 99
2018-03-26 03:00:00 1.3 4 Norte 10 Norte 0 -- -- 99
2018-03-26 02:00:00 1.9 6 Norte 18 Norte 1 -- -- 99
2018-03-26 01:00:00 1.6 8 Norte 13 Norte 1.2 -- -- 100
2018-03-26 00:00:00 0.7 0 Calma 11 Norte 1.2 -- -- 100
2018-03-25 23:00:00 0.8 4 Norte 8 Norte 1.4 -- -- 100
2018-03-25 22:00:00 0.3 0 Calma 0 Calma 3.6 -- -- 100
2018-03-25 21:00:00 0.3 0 Calma 0 Calma 8 -- -- 100
2018-03-25 20:00:00 0.4 0 Calma 0 Calma 1.2 -- -- 100
2018-03-25 19:00:00 0.7 0 Calma 0 Calma 1.4 -- -- 100
2018-03-25 18:00:00 0.8 0 Calma 0 Calma 0.8 -- -- 99
2018-03-25 17:00:00 0.7 0 Calma 2 Norte 1.4 -- -- 99
2018-03-25 16:00:00 0.7 0 Calma 2 Noroeste 5.4 -- -- 98
2018-03-25 15:00:00 0.8 0 Calma 8 Norte 5.8 -- -- 98
2018-03-25 14:00:00 0.9 0 Calma 2 Norte 5 -- -- 97
2018-03-25 13:00:00 0.8 0 Calma 0 Calma 6.6 -- -- 98
2018-03-25 12:00:00 0.5 0 Calma 5 Norte 5.8 -- -- 99
2018-03-25 11:00:00 0.4 3 Noroeste 11 Norte 3.8 -- -- 98
2018-03-25 10:00:00 1.1 5 Norte 14 Noroeste 1.6 -- -- 96
2018-03-25 09:00:00 1.9 6 Norte 12 Nordeste 0.2 -- -- 94
2018-03-25 08:00:00 1.9 9 Norte 16 Norte 0.6 -- -- 96
2018-03-25 07:00:00 1.5 4 Norte 8 Norte 0.2 -- -- 99
2018-03-25 06:00:00 1.5 3 Norte 6 Norte 0.2 -- -- 98
2018-03-25 05:00:00 1.7 0 Calma 8 Este 0 -- -- 96
2018-03-25 03:00:00 1.8 3 Norte 7 Norte 0 -- -- 96
2018-03-25 01:00:00 2 3 Noroeste 11 Norte 0 -- -- 95
2018-03-25 00:00:00 2.4 3 Norte 15 Norte 0 -- -- 94
2018-03-24 23:00:00 2.6 5 Nordeste 16 Norte 0 -- -- 93
2018-03-24 22:00:00 2.6 11 Norte 23 Noroeste 0.6 -- -- 94
2018-03-24 21:00:00 2.9 12 Norte 33 Noroeste 0.8 -- -- 94
2018-03-24 20:00:00 2.4 10 Norte 22 Norte 2.6 -- -- 96
2018-03-24 19:00:00 2.4 9 Norte 28 Norte 4.2 -- -- 96
2018-03-24 18:00:00 3.3 16 Norte 47 Norte 2.8 -- -- 94
2018-03-24 17:00:00 3 13 Norte 32 Norte 4 -- -- 93
2018-03-24 16:00:00 3.1 11 Norte 34 Noroeste 4.2 -- -- 96
2018-03-24 15:00:00 3.3 19 Norte 45 Noroeste 3 -- -- 94
2018-03-24 14:00:00 3.3 18 Norte 37 Norte 3.6 -- -- 95
2018-03-24 13:00:00 2.9 15 Norte 28 Norte 4.2 -- -- 95
2018-03-24 12:00:00 1.2 12 Norte 23 Nordeste 5.8 -- -- 97
2018-03-24 11:00:00 0.8 6 Norte 13 Norte 4.6 -- -- 98
2018-03-24 10:00:00 0.7 5 Norte 13 Norte 4.2 -- -- 98
2018-03-24 09:00:00 1 6 Norte 16 Noroeste 2.2 -- -- 95
2018-03-24 08:00:00 1.9 6 Norte 17 Este 0.2 -- -- 87
2018-03-24 07:00:00 1.2 4 Norte 10 Noroeste 0.2 -- -- 94
2018-03-24 06:00:00 1.7 4 Norte 24 Noroeste 0.2 -- -- 89
2018-03-24 05:00:00 1.2 5 Norte 15 Noroeste 0 -- -- 93
2018-03-24 04:00:00 0.9 4 Norte 24 Norte 0.6 -- -- 96
2018-03-24 03:00:00 2.7 13 Norte 24 Norte 0 -- -- 81
2018-03-24 02:00:00 3 9 Norte 24 Nordeste 0 -- -- 76
2018-03-24 01:00:00 2.6 7 Norte 16 Noroeste 0 -- -- 81
2018-03-24 00:00:00 2.9 6 Norte 23 Norte 0.2 -- -- 77
2018-03-23 23:00:00 2.2 4 Norte 9 Este 0 -- -- 95
2018-03-23 22:00:00 2.7 2 Sudeste 21 Noroeste 0.8 -- -- 92
2018-03-23 21:00:00 4 15 Norte 40 Noroeste 2 -- -- 85
2018-03-23 20:00:00 8.9 6 Este 32 Este 0 -- -- 62
2018-03-23 19:00:00 10 7 Sudeste 25 Este 0 -- -- 57
2018-03-23 18:00:00 11 11 Este 32 Sudeste 0 -- -- 54
2018-03-23 17:00:00 10.7 4 Este 32 Sudeste 0 -- -- 58
2018-03-23 16:00:00 11.5 10 Sudeste 31 Sudeste 0 -- -- 55
2018-03-23 15:00:00 12.6 2 Sudeste 25 Este 0 -- -- 55
2018-03-23 14:00:00 12.2 5 Este 13 Este 0 -- -- 53
2018-03-23 13:00:00 10.5 4 Sudeste 12 Sudeste 0.2 -- -- 77
2018-03-23 12:00:00 7.8 7 Sudeste 12 Sudeste 0 -- -- 87
2018-03-23 11:00:00 6.6 2 Noroeste 15 Sudeste 0 -- -- 92
2018-03-23 10:00:00 5 6 Sudeste 13 Sudeste 0 -- -- 98
2018-03-23 09:00:00 4.2 6 Sudeste 11 Sudeste 0.2 -- -- 100
2018-03-23 08:00:00 3.6 6 Sudeste 11 Sudeste 1.6 -- -- 100
2018-03-23 07:00:00 3.2 5 Sudeste 9 Sudeste 2.8 -- -- 99
2018-03-23 06:00:00 3.1 3 Sudeste 8 Sudeste 2.2 -- -- 98
2018-03-23 05:00:00 3.1 4 Sudeste 10 Sudeste 1.6 -- -- 97
2018-03-23 04:00:00 3.3 4 Sudeste 13 Sudeste 1 -- -- 95
2018-03-23 03:00:00 3.3 4 Sudeste 11 Este 0 -- -- 88
2018-03-23 02:00:00 3.6 3 Sudeste 12 Sudeste 0 -- -- 71
2018-03-23 01:00:00 3.8 8 Sudeste 13 Sudeste 0 -- -- 68
2018-03-23 00:00:00 3.4 8 Sudeste 13 Sudeste 0 -- -- 72